Time;durP1;ratioP1;P1;durP2;ratioP2;P2;SDS_P1;SDS_P2;PMS_P1;PMS_P2;Temp;Humidity;BMP_temperature;BMP_pressure;BME280_temperature;BME280_humidity;BME280_pressure;Samples;Min_cycle;Max_cycle;Signal;HPM_P1;HPM_P2
2023/12/25 00:00:28;;;;;;;8.15;5.88;;;;;;;24.89;35.11;99365.66;4992235;28;20044;-44
2023/12/25 00:02:54;;;;;;;6.70;4.90;;;;;;;24.87;34.92;99368.16;4987170;28;20030;-44
2023/12/25 00:05:19;;;;;;;6.78;5.00;;;;;;;24.84;35.11;99371.91;4988329;28;20037;-43
2023/12/25 00:07:44;;;;;;;7.40;5.22;;;;;;;24.87;34.97;99375.69;4988438;28;20034;-44
2023/12/25 00:10:10;;;;;;;6.80;5.00;;;;;;;24.85;35.16;99367.91;4986273;28;20030;-45
2023/12/25 00:12:35;;;;;;;6.90;4.93;;;;;;;24.84;35.02;99369.16;4985661;28;20026;-45
2023/12/25 00:15:00;;;;;;;7.15;5.03;;;;;;;24.85;35.04;99373.41;4984920;28;20041;-45
2023/12/25 00:17:26;;;;;;;7.28;4.85;;;;;;;24.83;35.18;99367.63;4984192;28;20022;-45
2023/12/25 00:19:51;;;;;;;6.63;4.80;;;;;;;24.85;35.22;99345.81;4985267;28;20030;-44
2023/12/25 00:22:16;;;;;;;6.80;4.70;;;;;;;24.82;34.99;99346.81;4984118;28;20031;-43
2023/12/25 00:24:43;;;;;;;6.95;4.80;;;;;;;24.81;35.11;99342.53;4984204;28;20499;-48
2023/12/25 00:27:09;;;;;;;6.88;4.47;;;;;;;24.83;35.09;99356.59;4985555;28;20475;-45
2023/12/25 00:29:34;;;;;;;6.70;4.45;;;;;;;24.82;34.98;99368.88;4984666;28;20037;-43
2023/12/25 00:32:00;;;;;;;6.28;4.20;;;;;;;24.82;35.16;99366.13;4985502;28;20022;-44
2023/12/25 00:34:25;;;;;;;6.03;4.25;;;;;;;24.84;35.07;99354.59;4984849;28;20030;-44
2023/12/25 00:36:50;;;;;;;5.90;3.92;;;;;;;24.82;34.98;99355.09;4983360;28;20026;-44
2023/12/25 00:39:16;;;;;;;6.25;3.97;;;;;;;24.85;34.98;99354.09;4984299;28;20469;-45
2023/12/25 00:41:41;;;;;;;5.93;3.95;;;;;;;24.87;34.70;99346.06;4983432;28;20150;-44
2023/12/25 00:44:06;;;;;;;6.60;4.10;;;;;;;24.87;34.92;99345.31;4989047;28;20038;-45
2023/12/25 00:46:32;;;;;;;7.22;4.20;;;;;;;24.84;34.97;99341.53;4984533;28;20022;-44
2023/12/25 00:48:57;;;;;;;6.43;3.83;;;;;;;24.82;35.08;99346.81;4982427;28;20056;-45
2023/12/25 00:51:23;;;;;;;6.25;3.90;;;;;;;24.87;34.80;99337.03;4985843;28;20026;-44
2023/12/25 00:53:48;;;;;;;5.93;4.00;;;;;;;24.86;35.04;99357.59;4984144;28;20026;-45
2023/12/25 00:56:13;;;;;;;6.50;3.80;;;;;;;24.86;34.97;99338.28;4985615;28;20034;-44
2023/12/25 00:58:39;;;;;;;6.15;3.67;;;;;;;24.86;34.83;99344.56;4985515;28;20026;-45
2023/12/25 01:01:04;;;;;;;5.82;3.80;;;;;;;24.86;35.00;99361.13;4985421;28;20480;-44
2023/12/25 01:03:29;;;;;;;6.00;3.80;;;;;;;24.83;35.15;99364.88;4982960;28;20026;-46
2023/12/25 01:05:55;;;;;;;5.88;3.70;;;;;;;24.85;34.93;99365.13;4981991;28;20030;-45
2023/12/25 01:08:20;;;;;;;5.88;3.55;;;;;;;24.85;34.93;99359.63;4986953;28;20038;-45
2023/12/25 01:10:45;;;;;;;6.20;3.83;;;;;;;24.83;34.94;99359.34;4984419;28;20462;-44
2023/12/25 01:13:11;;;;;;;6.28;3.83;;;;;;;24.84;34.86;99349.06;4984340;28;20027;-45
2023/12/25 01:15:36;;;;;;;5.40;3.25;;;;;;;24.80;34.89;99343.78;4984688;28;20032;-43
2023/12/25 01:18:01;;;;;;;5.75;3.30;;;;;;;24.80;34.88;99334.75;4983718;28;20033;-44
2023/12/25 01:20:27;;;;;;;5.82;3.70;;;;;;;24.79;35.12;99342.28;4987291;28;20387;-44
2023/12/25 01:22:52;;;;;;;5.57;3.45;;;;;;;24.81;35.20;99350.06;4988099;28;20027;-44
2023/12/25 01:25:18;;;;;;;5.40;3.33;;;;;;;24.82;34.87;99344.03;4985124;28;20026;-45
2023/12/25 01:27:43;;;;;;;5.07;2.88;;;;;;;24.81;34.94;99342.53;4983625;28;20027;-44
2023/12/25 01:30:11;;;;;;;6.75;3.40;;;;;;;24.82;34.89;99351.56;4985114;28;20033;-45
2023/12/25 01:32:37;;;;;;;5.10;3.03;;;;;;;24.84;34.85;99351.84;4983812;28;20019;-45
2023/12/25 01:35:02;;;;;;;5.88;3.13;;;;;;;24.84;34.83;99338.78;4982828;28;20105;-44
2023/12/25 01:37:28;;;;;;;5.10;3.00;;;;;;;24.85;34.99;99347.81;4984271;28;20505;-44
2023/12/25 01:39:53;;;;;;;5.35;3.03;;;;;;;24.82;34.98;99349.56;4984486;28;20101;-45
2023/12/25 01:42:18;;;;;;;4.90;2.80;;;;;;;24.85;35.10;99343.06;4988268;28;20474;-44
2023/12/25 01:44:46;;;;;;;5.38;3.13;;;;;;;24.81;35.04;99356.34;4985718;28;20023;-44
2023/12/25 01:47:12;;;;;;;5.05;2.80;;;;;;;24.84;35.10;99355.34;4981638;28;20030;-45
2023/12/25 01:49:37;;;;;;;5.50;3.20;;;;;;;24.86;34.91;99354.84;4987306;28;20457;-44
2023/12/25 01:52:03;;;;;;;5.30;2.92;;;;;;;24.86;34.90;99352.09;4982903;28;20542;-43
2023/12/25 01:54:28;;;;;;;5.15;2.90;;;;;;;24.84;34.81;99349.81;5008456;28;20033;-45
2023/12/25 01:56:53;;;;;;;4.78;2.60;;;;;;;24.83;34.84;99342.78;4992297;28;20021;-45
2023/12/25 01:59:19;;;;;;;5.10;2.92;;;;;;;24.82;35.04;99338.53;4986624;28;20039;-44
2023/12/25 02:01:44;;;;;;;4.80;2.78;;;;;;;24.77;35.07;99338.53;4982412;28;20028;-44
2023/12/25 02:04:09;;;;;;;4.97;2.78;;;;;;;24.79;35.02;99344.28;4986638;28;20027;-44
2023/12/25 02:06:35;;;;;;;4.93;2.90;;;;;;;24.80;35.05;99340.28;4984648;28;20040;-44
2023/12/25 02:09:00;;;;;;;4.70;2.47;;;;;;;24.80;34.93;99338.28;4983420;28;20506;-45
2023/12/25 02:11:26;;;;;;;5.35;2.72;;;;;;;24.79;34.92;99347.81;4995010;28;20106;-45
2023/12/25 02:13:55;;;;;;;4.75;2.63;;;;;;;24.76;35.03;99351.59;4987618;28;20018;-44
2023/12/25 02:16:20;;;;;;;4.10;2.20;;;;;;;24.77;34.95;99346.81;4983096;28;20023;-44
2023/12/25 02:18:45;;;;;;;4.40;2.40;;;;;;;24.77;34.91;99352.34;4980231;28;20088;-44
2023/12/25 02:21:11;;;;;;;4.88;2.50;;;;;;;24.76;35.02;99362.63;4993938;28;20030;-45
2023/12/25 02:23:37;;;;;;;5.07;2.70;;;;;;;24.81;34.93;99359.09;4990182;28;20114;-44
2023/12/25 02:26:05;;;;;;;5.05;2.60;;;;;;;24.79;35.07;99355.31;4977764;28;20117;-44
2023/12/25 02:28:30;;;;;;;4.57;2.38;;;;;;;24.82;34.99;99354.34;4987535;28;20026;-44
2023/12/25 02:30:55;;;;;;;4.63;2.47;;;;;;;24.83;34.93;99358.59;5012844;28;20433;-44
2023/12/25 02:33:21;;;;;;;4.70;2.40;;;;;;;24.83;34.75;99351.06;4984538;28;20035;-44
2023/12/25 02:35:46;;;;;;;4.15;2.20;;;;;;;24.84;34.87;99355.34;4985554;28;20749;-44
2023/12/25 02:38:11;;;;;;;4.70;2.33;;;;;;;24.82;34.55;99366.13;4978110;28;20035;-46
2023/12/25 02:40:39;;;;;;;4.72;2.47;;;;;;;24.83;34.69;99366.88;4983111;28;20041;-45
2023/12/25 02:43:07;;;;;;;4.30;2.22;;;;;;;24.79;34.92;99361.59;4982417;28;20509;-47
2023/12/25 02:45:32;;;;;;;4.18;2.10;;;;;;;24.78;34.83;99353.84;4982451;28;20027;-46
2023/12/25 02:47:57;;;;;;;4.57;2.30;;;;;;;24.82;34.85;99360.59;4982605;28;20083;-44
2023/12/25 02:50:23;;;;;;;4.60;2.13;;;;;;;24.83;34.80;99351.06;4984757;28;20026;-44
2023/12/25 02:52:48;;;;;;;4.10;2.20;;;;;;;24.80;34.92;99357.59;4981157;28;20022;-44
2023/12/25 02:55:13;;;;;;;4.30;2.10;;;;;;;24.77;35.07;99353.09;4987565;28;20033;-46
2023/12/25 02:57:39;;;;;;;4.07;1.98;;;;;;;24.78;34.97;99359.38;4980756;28;20057;-45
2023/12/25 03:00:05;;;;;;;4.30;2.20;;;;;;;24.75;34.97;99358.34;4989166;28;20035;-44
2023/12/25 03:02:30;;;;;;;4.07;2.10;;;;;;;24.77;35.01;99360.63;4981851;28;20026;-44
2023/12/25 03:04:56;;;;;;;4.15;2.25;;;;;;;24.77;34.88;99357.84;4980982;28;20240;-44
2023/12/25 03:07:21;;;;;;;4.65;1.80;;;;;;;24.75;34.95;99355.59;4982068;28;20030;-43
2023/12/25 03:09:46;;;;;;;4.00;2.08;;;;;;;24.74;35.29;99348.56;4984383;28;20026;-45
2023/12/25 03:12:12;;;;;;;4.35;2.05;;;;;;;24.75;34.95;99344.56;4982803;28;20022;-46
2023/12/25 03:14:37;;;;;;;4.05;2.00;;;;;;;24.76;34.91;99351.59;4987046;28;20729;-43
2023/12/25 03:17:03;;;;;;;4.10;1.90;;;;;;;24.79;34.93;99349.81;4981741;28;20026;-45
2023/12/25 03:19:29;;;;;;;4.20;1.98;;;;;;;24.80;34.85;99352.06;4984451;28;20023;-45
2023/12/25 03:21:54;;;;;;;4.10;2.00;;;;;;;24.80;34.70;99352.06;4981280;28;20438;-45
2023/12/25 03:24:19;;;;;;;3.95;1.90;;;;;;;24.82;34.79;99352.31;4985086;28;20041;-43
2023/12/25 03:26:45;;;;;;;4.25;1.90;;;;;;;24.82;34.74;99354.34;4979695;28;20551;-44
2023/12/25 03:29:10;;;;;;;3.90;1.92;;;;;;;24.81;35.00;99355.59;4978608;28;20031;-45
2023/12/25 03:31:35;;;;;;;4.20;1.90;;;;;;;24.81;34.82;99353.56;4983349;28;20026;-44
2023/12/25 03:34:01;;;;;;;4.20;1.90;;;;;;;24.82;34.53;99355.09;4984790;28;20037;-45
2023/12/25 03:36:26;;;;;;;3.35;1.70;;;;;;;24.82;34.74;99357.09;4986955;28;20424;-45
2023/12/25 03:38:52;;;;;;;3.38;1.50;;;;;;;24.82;34.87;99355.09;4986209;28;20018;-45
2023/12/25 03:41:17;;;;;;;3.90;1.90;;;;;;;24.85;34.97;99365.13;4977444;28;20035;-44
2023/12/25 03:43:43;;;;;;;3.90;1.80;;;;;;;24.86;34.91;99363.88;4987008;28;20031;-46
2023/12/25 03:46:08;;;;;;;4.00;1.88;;;;;;;24.83;34.84;99367.63;4987677;28;20018;-45
2023/12/25 03:48:33;;;;;;;3.60;1.75;;;;;;;24.79;34.82;99358.84;4983214;28;20104;-44
2023/12/25 03:50:59;;;;;;;3.90;1.80;;;;;;;24.80;34.99;99362.34;4981353;28;20025;-44
2023/12/25 03:53:24;;;;;;;4.03;1.85;;;;;;;24.78;35.00;99362.13;4984263;28;20114;-44
2023/12/25 03:55:50;;;;;;;3.85;1.83;;;;;;;24.76;34.80;99357.09;4987128;28;20036;-44
2023/12/25 03:58:15;;;;;;;4.10;1.65;;;;;;;24.79;34.92;99350.56;4986237;28;20085;-45
2023/12/25 04:00:40;;;;;;;3.28;1.50;;;;;;;24.79;34.89;99334.00;4987264;28;20058;-45
2023/12/25 04:03:06;;;;;;;3.25;1.60;;;;;;;24.76;34.93;99326.75;4988741;28;20026;-45
2023/12/25 04:05:31;;;;;;;3.75;1.80;;;;;;;24.77;35.03;99319.97;4983370;28;20033;-45
2023/12/25 04:07:56;;;;;;;4.28;1.88;;;;;;;24.77;35.06;99314.44;4985816;28;20104;-45
2023/12/25 04:10:22;;;;;;;3.30;1.60;;;;;;;24.77;35.07;99311.69;4983401;28;20031;-44
2023/12/25 04:12:47;;;;;;;3.42;1.60;;;;;;;24.77;35.03;99319.97;4984030;28;20038;-45
2023/12/25 04:15:13;;;;;;;4.05;1.88;;;;;;;24.79;35.06;99327.72;4984890;28;20045;-46
2023/12/25 04:17:38;;;;;;;4.25;1.80;;;;;;;24.79;34.94;99322.97;4987065;28;20024;-44
2023/12/25 04:20:03;;;;;;;3.63;1.52;;;;;;;24.82;34.88;99323.97;4989057;28;20034;-44
2023/12/25 04:22:29;;;;;;;3.05;1.50;;;;;;;24.83;34.99;99329.00;4985082;28;20385;-44
2023/12/25 04:24:54;;;;;;;3.70;1.70;;;;;;;24.80;35.00;99323.72;4984853;28;20030;-45
2023/12/25 04:27:20;;;;;;;3.28;1.50;;;;;;;24.80;34.87;99329.22;4984244;28;20023;-44
2023/12/25 04:29:45;;;;;;;3.40;1.63;;;;;;;24.82;34.89;99337.78;4988319;28;20026;-44
2023/12/25 04:32:10;;;;;;;3.80;1.55;;;;;;;24.85;35.00;99329.25;4984520;28;20474;-45
2023/12/25 04:34:36;;;;;;;3.30;1.40;;;;;;;24.84;34.81;99329.75;4982099;28;20062;-44
2023/12/25 04:37:01;;;;;;;2.85;1.40;;;;;;;24.78;34.94;99331.78;4984454;28;20033;-44
2023/12/25 04:39:27;;;;;;;3.28;1.60;;;;;;;24.77;34.68;99339.28;4986673;28;20030;-44
2023/12/25 04:41:52;;;;;;;3.65;1.50;;;;;;;24.77;34.52;99346.81;4983982;28;20026;-43
2023/12/25 04:44:17;;;;;;;3.35;1.40;;;;;;;24.74;34.63;99345.81;4987231;28;20030;-45
2023/12/25 04:46:43;;;;;;;2.45;1.27;;;;;;;24.75;34.60;99343.81;4981906;28;20433;-44
2023/12/25 04:49:08;;;;;;;2.95;1.20;;;;;;;24.75;34.69;99352.84;4987760;28;20036;-43
2023/12/25 04:51:34;;;;;;;2.63;1.30;;;;;;;24.73;34.73;99369.13;4983004;28;20023;-44
2023/12/25 04:53:59;;;;;;;3.33;1.40;;;;;;;24.76;34.58;99368.16;4989550;28;20018;-44
2023/12/25 04:56:24;;;;;;;5.75;1.40;;;;;;;24.73;34.62;99385.69;4983540;28;20030;-45
2023/12/25 04:58:50;;;;;;;3.58;1.58;;;;;;;24.72;34.92;99395.22;4975831;28;20030;-44
2023/12/25 05:01:15;;;;;;;3.70;1.50;;;;;;;24.74;34.85;99392.72;4982597;28;20030;-44
2023/12/25 05:03:41;;;;;;;3.42;1.33;;;;;;;24.75;34.87;99397.00;5008196;28;20081;-44
2023/12/25 05:06:06;;;;;;;3.65;1.40;;;;;;;24.75;34.89;99394.25;4982578;28;20456;-48
2023/12/25 05:08:31;;;;;;;3.58;1.40;;;;;;;24.75;34.95;99388.72;4978235;28;20026;-46
2023/12/25 05:10:57;;;;;;;3.17;1.30;;;;;;;24.75;34.87;99388.72;4984454;28;20033;-47
2023/12/25 05:13:22;;;;;;;2.80;1.20;;;;;;;24.74;34.89;99381.69;4986753;28;20490;-46
2023/12/25 05:15:47;;;;;;;3.22;1.20;;;;;;;24.75;34.92;99374.16;4992347;28;20116;-44
2023/12/25 05:18:13;;;;;;;2.80;1.30;;;;;;;24.75;34.94;99361.13;5014636;28;20035;-44
2023/12/25 05:20:38;;;;;;;3.28;1.30;;;;;;;24.74;34.94;99354.09;4983005;28;20033;-45
2023/12/25 05:23:03;;;;;;;2.40;1.30;;;;;;;24.75;34.89;99341.78;4983191;28;20034;-45
2023/12/25 05:25:29;;;;;;;3.20;1.30;;;;;;;24.73;34.79;99320.22;4981038;28;20683;-44
2023/12/25 05:27:54;;;;;;;2.53;1.20;;;;;;;24.75;35.15;99324.47;4982642;28;20026;-44
2023/12/25 05:30:19;;;;;;;3.05;1.40;;;;;;;24.75;35.00;99332.75;4984641;28;20045;-45
2023/12/25 05:32:45;;;;;;;2.80;1.10;;;;;;;24.75;35.06;99328.00;4985859;28;20398;-44
2023/12/25 05:35:10;;;;;;;2.88;1.20;;;;;;;24.74;34.84;99337.53;4986894;28;20050;-44
2023/12/25 05:37:36;;;;;;;2.92;1.38;;;;;;;24.79;34.88;99328.47;4980483;28;20393;-44
2023/12/25 05:40:02;;;;;;;3.15;1.27;;;;;;;24.74;34.90;99340.28;4985866;28;20500;-44
2023/12/25 05:42:27;;;;;;;3.28;1.40;;;;;;;24.73;35.13;99341.53;4981689;28;20038;-47
2023/12/25 05:44:53;;;;;;;2.40;1.15;;;;;;;24.72;35.05;99329.00;4981388;28;20060;-46
2023/12/25 05:47:18;;;;;;;2.90;1.20;;;;;;;24.71;35.00;99333.00;4982583;28;20022;-44
2023/12/25 05:49:45;;;;;;;2.50;1.20;;;;;;;24.70;35.24;99331.50;4985142;28;20600;-43
2023/12/25 05:52:10;;;;;;;2.10;1.10;;;;;;;24.71;35.08;99333.00;4982404;28;20025;-45
2023/12/25 05:54:35;;;;;;;2.80;1.20;;;;;;;24.85;35.03;99343.06;4983520;28;20452;-44
2023/12/25 05:57:01;;;;;;;2.63;1.23;;;;;;;24.78;35.56;99338.00;4979085;28;20105;-47
2023/12/25 05:59:26;;;;;;;4.07;1.20;;;;;;;24.81;35.20;99347.31;4981869;28;20509;-49
2023/12/25 06:01:52;;;;;;;3.20;1.02;;;;;;;24.83;35.49;99350.31;4986272;28;20423;-45
2023/12/25 06:04:17;;;;;;;5.80;1.30;;;;;;;24.87;35.54;99354.34;4983399;28;20043;-46
2023/12/25 06:06:42;;;;;;;4.68;1.30;;;;;;;24.83;35.51;99350.31;4979549;28;20019;-45
2023/12/25 06:09:10;;;;;;;3.78;1.23;;;;;;;24.70;35.38;99348.81;4980952;28;20038;-44
2023/12/25 06:11:35;;;;;;;3.65;1.20;;;;;;;24.74;35.51;99345.81;4979631;28;20033;-41
2023/12/25 06:14:01;;;;;;;4.25;1.42;;;;;;;24.69;34.52;99349.31;4983943;28;20030;-45
2023/12/25 06:16:26;;;;;;;3.65;1.20;;;;;;;24.62;34.73;99355.28;4981555;28;20389;-44
2023/12/25 06:18:51;;;;;;;3.42;1.30;;;;;;;24.57;34.19;99351.28;4981692;28;20030;-41
2023/12/25 06:21:17;;;;;;;3.00;1.25;;;;;;;24.56;34.02;99358.06;4980216;28;20031;-43
2023/12/25 06:23:42;;;;;;;7.38;1.30;;;;;;;24.51;33.64;99353.28;4977834;28;20629;-40
2023/12/25 06:26:08;;;;;;;2.65;1.20;;;;;;;24.49;33.74;99355.03;4979956;28;20029;-42
2023/12/25 06:28:33;;;;;;;2.72;1.20;;;;;;;24.49;33.38;99366.81;4982690;28;20081;-44
2023/12/25 06:30:58;;;;;;;3.05;1.30;;;;;;;24.47;33.65;99363.03;4979082;28;20033;-43
2023/12/25 06:33:24;;;;;;;4.55;1.30;;;;;;;24.55;33.64;99364.84;4982594;28;20470;-44
2023/12/25 06:35:49;;;;;;;3.05;1.20;;;;;;;24.46;33.18;99383.59;4979522;28;20502;-47
2023/12/25 06:38:14;;;;;;;4.13;1.10;;;;;;;24.41;33.08;99392.59;4985176;28;20026;-44
2023/12/25 06:40:40;;;;;;;2.38;1.20;;;;;;;24.36;33.00;99386.59;4982217;28;20029;-43
2023/12/25 06:43:06;;;;;;;2.85;1.23;;;;;;;24.35;32.71;99374.03;4983191;28;20233;-44
2023/12/25 06:45:32;;;;;;;4.35;1.15;;;;;;;24.42;32.61;99374.78;4981826;28;20482;-50
2023/12/25 06:47:57;;;;;;;3.28;1.27;;;;;;;24.37;32.63;99368.03;4982505;28;20038;-43
2023/12/25 06:50:22;;;;;;;2.42;1.10;;;;;;;24.42;32.62;99366.53;4979186;28;20027;-47
2023/12/25 06:52:48;;;;;;;2.15;1.10;;;;;;;24.38;32.51;99373.03;4981832;28;20040;-49
2023/12/25 06:55:14;;;;;;;2.60;1.15;;;;;;;24.40;32.42;99375.28;4978811;28;20557;-49
2023/12/25 06:57:39;;;;;;;2.28;1.15;;;;;;;24.41;32.46;99376.03;4979070;28;20019;-45
2023/12/25 07:00:05;;;;;;;3.17;1.08;;;;;;;24.37;32.09;99377.06;4981325;28;20072;-44
2023/12/25 07:02:31;;;;;;;2.55;1.25;;;;;;;24.32;32.43;99369.50;4986975;28;20055;-43
2023/12/25 07:04:56;;;;;;;2.65;1.00;;;;;;;24.31;32.14;99373.53;4982907;28;20386;-45
2023/12/25 07:07:21;;;;;;;1.88;1.08;;;;;;;24.29;32.20;99376.00;4987208;28;20022;-45
2023/12/25 07:09:47;;;;;;;2.35;1.15;;;;;;;24.28;32.22;99369.00;4986054;28;20034;-42
2023/12/25 07:12:12;;;;;;;2.28;1.10;;;;;;;24.28;32.20;99362.72;4982665;28;20528;-44
2023/12/25 07:14:38;;;;;;;3.97;1.20;;;;;;;24.31;32.21;99358.97;4985164;28;20038;-44
2023/12/25 07:17:06;;;;;;;2.85;1.20;;;;;;;24.32;32.00;99369.50;4983819;28;20467;-44
2023/12/25 07:19:31;;;;;;;3.05;1.23;;;;;;;24.37;32.03;99366.03;4983478;28;20030;-43
2023/12/25 07:21:57;;;;;;;2.30;1.10;;;;;;;24.37;32.37;99363.28;4982867;28;20387;-43
2023/12/25 07:24:22;;;;;;;3.45;1.30;;;;;;;24.39;32.79;99377.28;4988428;28;20037;-42
2023/12/25 07:26:48;;;;;;;2.22;1.13;;;;;;;24.38;32.83;99386.81;4982799;28;20023;-42
2023/12/25 07:29:13;;;;;;;3.00;1.23;;;;;;;24.42;32.56;99381.06;4990075;28;20429;-46
2023/12/25 07:31:38;;;;;;;3.35;1.30;;;;;;;24.52;32.56;99393.41;4984101;28;20410;-44
2023/12/25 07:34:04;;;;;;;3.08;1.20;;;;;;;24.57;32.50;99402.97;4989607;28;20041;-45
2023/12/25 07:36:29;;;;;;;2.95;1.20;;;;;;;24.47;31.68;99415.47;4986654;28;20022;-46
2023/12/25 07:38:55;;;;;;;2.58;1.20;;;;;;;24.43;32.00;99407.41;4984449;28;20022;-43
2023/12/25 07:41:21;;;;;;;2.22;1.13;;;;;;;24.48;32.22;99408.69;4987587;28;20048;-45
2023/12/25 07:43:47;;;;;;;9.80;1.47;;;;;;;24.54;32.43;99413.00;4986922;28;20022;-46
2023/12/25 07:46:12;;;;;;;11.13;1.52;;;;;;;24.60;32.73;99388.91;4986314;28;20037;-44
2023/12/25 07:48:37;;;;;;;8.70;1.30;;;;;;;24.59;32.75;99392.16;4989299;28;20545;-44
2023/12/25 07:51:03;;;;;;;3.75;1.20;;;;;;;24.55;32.46;99397.19;4987763;28;20029;-44
2023/12/25 07:53:29;;;;;;;5.18;1.30;;;;;;;24.50;32.61;99395.16;4990126;28;20023;-44
2023/12/25 07:55:54;;;;;;;5.22;1.30;;;;;;;24.50;32.62;99408.94;4986069;28;20029;-43
2023/12/25 07:58:20;;;;;;;3.58;1.30;;;;;;;24.51;32.68;99402.19;4984101;28;20030;-45
2023/12/25 08:00:45;;;;;;;2.20;1.10;;;;;;;24.51;32.68;99402.19;4987878;28;20502;-44
2023/12/25 08:03:11;;;;;;;3.85;1.33;;;;;;;24.51;32.83;99413.22;4986265;28;20026;-44
2023/12/25 08:05:37;;;;;;;2.47;1.10;;;;;;;24.51;32.67;99404.94;4981584;28;20048;-44
2023/12/25 08:08:06;;;;;;;3.17;1.20;;;;;;;24.49;32.70;99415.72;4991635;28;20026;-47
2023/12/25 08:10:32;;;;;;;3.47;1.17;;;;;;;24.50;32.70;99429.00;4988445;28;20882;-45
2023/12/25 08:12:58;;;;;;;3.17;1.30;;;;;;;24.48;32.82;99423.25;4982796;28;20061;-44
2023/12/25 08:15:25;;;;;;;2.10;1.00;;;;;;;24.52;32.83;99420.25;4992604;28;20393;-45
2023/12/25 08:17:51;;;;;;;3.53;1.20;;;;;;;24.51;32.86;99433.28;4983440;28;20029;-45
2023/12/25 08:20:16;;;;;;;3.80;1.10;;;;;;;24.52;32.74;99436.81;4985209;28;20030;-44
2023/12/25 08:22:41;;;;;;;3.22;1.30;;;;;;;24.52;32.88;99431.28;4985093;28;20082;-46
2023/12/25 08:25:07;;;;;;;2.13;1.20;;;;;;;24.53;32.86;99439.06;4984349;28;20119;-46
2023/12/25 08:27:32;;;;;;;3.05;1.10;;;;;;;24.59;32.88;99441.81;4981440;28;20015;-44
2023/12/25 08:29:58;;;;;;;2.30;1.00;;;;;;;24.60;32.86;99451.63;4987164;28;20027;-43
2023/12/25 08:32:23;;;;;;;2.92;1.30;;;;;;;24.58;32.87;99452.13;4982854;28;20077;-47
2023/12/25 08:34:48;;;;;;;4.05;1.10;;;;;;;24.57;33.37;99449.88;4985396;28;20032;-43
2023/12/25 08:37:14;;;;;;;16.38;1.73;;;;;;;24.62;33.30;99440.84;4987776;28;20397;-46
2023/12/25 08:39:39;;;;;;;9.48;1.50;;;;;;;24.63;33.30;99439.59;4987562;28;20030;-45
2023/12/25 08:42:05;;;;;;;4.93;1.30;;;;;;;24.65;33.39;99443.38;4983966;28;20033;-43
2023/12/25 08:44:32;;;;;;;11.35;1.60;;;;;;;24.67;33.25;99437.34;4982504;28;20385;-44
2023/12/25 08:46:57;;;;;;;6.40;1.50;;;;;;;24.70;33.17;99441.88;4988151;28;20026;-45
2023/12/25 08:49:23;;;;;;;5.07;1.45;;;;;;;24.71;33.31;99455.19;4983431;28;20564;-44
2023/12/25 08:51:48;;;;;;;2.97;1.30;;;;;;;24.73;33.18;99454.69;4983933;28;20482;-44
2023/12/25 08:54:13;;;;;;;4.57;1.40;;;;;;;24.75;33.19;99449.44;4985288;28;20096;-44
2023/12/25 08:56:39;;;;;;;4.97;1.40;;;;;;;24.75;33.10;99443.16;4982405;28;20019;-44
2023/12/25 08:59:05;;;;;;;4.45;1.30;;;;;;;24.77;33.21;99452.47;4985070;28;20095;-44
2023/12/25 09:01:31;;;;;;;7.20;1.40;;;;;;;24.76;33.28;99439.91;4988696;28;20382;-44
2023/12/25 09:03:57;;;;;;;4.32;1.40;;;;;;;24.79;33.28;99444.41;4981009;28;20109;-44
2023/12/25 09:06:23;;;;;;;3.50;1.20;;;;;;;24.81;33.19;99447.44;4980572;28;20027;-44
2023/12/25 09:08:49;;;;;;;5.60;1.83;;;;;;;24.85;33.66;99442.44;4978161;28;20037;-43
2023/12/25 09:11:14;;;;;;;4.32;1.30;;;;;;;24.88;33.46;99444.19;4982185;28;20023;-43
2023/12/25 09:13:40;;;;;;;3.70;1.40;;;;;;;24.93;33.63;99454.50;4982574;28;20485;-43
2023/12/25 09:16:05;;;;;;;3.80;1.40;;;;;;;24.95;33.86;99460.31;4982160;28;20034;-48
2023/12/25 09:18:30;;;;;;;4.90;1.50;;;;;;;24.98;33.95;99459.31;4984500;28;20018;-44
2023/12/25 09:20:57;;;;;;;4.65;1.60;;;;;;;25.01;33.99;99458.31;4982501;28;20027;-48
2023/12/25 09:23:22;;;;;;;3.47;1.70;;;;;;;25.03;33.94;99464.09;4984204;28;20041;-46
2023/12/25 09:25:48;;;;;;;6.55;2.22;;;;;;;25.00;34.23;99472.63;4979104;28;20029;-43
2023/12/25 09:28:13;;;;;;;7.32;2.63;;;;;;;24.99;34.30;99469.09;4982558;28;20545;-40
2023/12/25 09:30:39;;;;;;;5.97;4.03;;;;;;;24.95;34.48;99482.41;5012289;28;20018;-39
2023/12/25 09:33:04;;;;;;;7.65;5.15;;;;;;;24.87;34.34;99478.59;4982123;28;20433;-41
2023/12/25 09:35:30;;;;;;;7.05;5.30;;;;;;;24.84;33.76;99490.63;4980626;28;20022;-42
2023/12/25 09:37:55;;;;;;;6.13;4.88;;;;;;;24.82;34.14;99487.59;4981202;28;20026;-41
2023/12/25 09:40:21;;;;;;;6.53;4.68;;;;;;;24.82;33.85;99484.84;4982609;28;20034;-41
2023/12/25 09:42:49;;;;;;;6.35;4.45;;;;;;;24.80;34.42;99492.84;4985424;28;20045;-44
2023/12/25 09:45:14;;;;;;;7.40;4.40;;;;;;;24.82;33.97;99492.34;5010877;28;20617;-44
2023/12/25 09:47:40;;;;;;;7.15;4.38;;;;;;;24.85;34.00;99500.41;5002026;28;20032;-46
2023/12/25 09:50:05;;;;;;;7.95;3.97;;;;;;;24.91;33.48;99495.66;4997812;28;20398;-48
2023/12/25 09:52:31;;;;;;;6.47;4.00;;;;;;;24.89;33.74;99492.66;4995122;28;20049;-43
2023/12/25 09:54:56;;;;;;;5.63;3.55;;;;;;;24.90;33.79;99493.41;4981698;28;20121;-44
2023/12/25 09:57:22;;;;;;;5.50;3.70;;;;;;;24.89;33.35;99506.44;4977078;28;20117;-43
2023/12/25 09:59:49;;;;;;;6.28;3.50;;;;;;;24.89;33.48;99500.19;4995989;28;20032;-44
2023/12/25 10:02:14;;;;;;;6.90;3.58;;;;;;;24.87;33.23;99491.63;4996855;28;20490;-44
2023/12/25 10:04:39;;;;;;;5.20;3.45;;;;;;;24.87;33.31;99489.63;4983514;28;20044;-43
2023/12/25 10:07:05;;;;;;;5.93;3.40;;;;;;;24.87;33.30;99505.44;4979439;28;20093;-43
2023/12/25 10:09:30;;;;;;;5.68;3.22;;;;;;;24.86;32.98;99498.41;4987175;28;20022;-44
2023/12/25 10:11:56;;;;;;;8.95;7.95;;;;;;;24.84;32.77;99501.66;4983990;28;20022;-43
2023/12/25 10:14:21;;;;;;;6.88;4.50;;;;;;;24.83;33.00;99489.09;4983967;28;20022;-44
2023/12/25 10:16:47;;;;;;;9.90;5.60;;;;;;;24.85;33.12;99497.66;4984972;28;20026;-43
2023/12/25 10:19:12;;;;;;;6.80;6.10;;;;;;;24.87;33.14;99495.16;4982209;28;20481;-43
2023/12/25 10:21:44;;;;;;;9.07;7.45;;;;;;;24.90;33.18;99496.91;4985195;28;20048;-43
2023/12/25 10:24:14;;;;;;;9.73;8.52;;;;;;;24.91;33.09;99492.16;4981797;28;20035;-43
2023/12/25 10:26:39;;;;;;;10.13;9.15;;;;;;;24.89;33.23;99498.16;4979125;28;20026;-43
2023/12/25 10:29:08;;;;;;;11.20;10.10;;;;;;;24.86;33.09;99493.63;4984582;28;20030;-43
2023/12/25 10:31:34;;;;;;;11.82;10.63;;;;;;;24.86;33.09;99493.63;4985726;28;20019;-43
2023/12/25 10:33:59;;;;;;;11.93;10.80;;;;;;;24.86;33.23;99487.34;4987509;28;20371;-44
2023/12/25 10:36:25;;;;;;;11.85;10.73;;;;;;;24.81;33.25;99497.13;4981591;28;20140;-44
2023/12/25 10:38:50;;;;;;;11.77;10.57;;;;;;;24.76;33.23;99488.84;4986938;28;20034;-43
2023/12/25 10:41:27;;;;;;;11.23;10.10;;;;;;;24.75;33.25;99482.56;5011551;28;20394;-43
2023/12/25 10:43:56;;;;;;;11.63;10.13;;;;;;;24.75;33.25;99493.59;4985834;28;20031;-43
2023/12/25 10:46:30;;;;;;;9.60;8.60;;;;;;;24.71;32.72;99493.84;4984458;28;20050;-44
2023/12/25 10:48:55;;;;;;;9.20;8.23;;;;;;;24.71;32.95;99491.06;4981534;28;20034;-45
2023/12/25 10:51:36;;;;;;;8.93;7.47;;;;;;;24.69;32.80;99492.81;4986000;28;20522;-45
2023/12/25 10:54:03;;;;;;;8.40;7.10;;;;;;;24.65;32.83;99490.28;5018766;28;20023;-44
2023/12/25 10:56:35;;;;;;;7.60;6.60;;;;;;;24.63;32.91;99492.78;4292968;28;10000791;-45
2023/12/25 10:59:24;;;;;;;7.63;5.65;;;;;;;24.59;32.70;99486.75;4979267;28;20026;-44
2023/12/25 11:01:50;;;;;;;6.55;4.95;;;;;;;24.59;32.91;99481.22;4979799;28;20117;-43
2023/12/25 11:04:15;;;;;;;6.50;4.80;;;;;;;24.07;32.59;99483.41;4974259;28;20109;-46
2023/12/25 11:06:44;;;;;;;8.23;5.95;;;;;;;24.03;33.38;99474.59;4981173;28;20026;-43
2023/12/25 11:09:14;;;;;;;12.13;10.50;;;;;;;23.89;33.09;99475.50;4975327;28;20113;-42
2023/12/25 11:11:41;;;;;;;16.92;13.52;;;;;;;23.55;32.47;99475.25;4977224;28;20023;-48
2023/12/25 11:14:06;;;;;;;18.30;15.13;;;;;;;23.47;33.02;99479.66;5011626;28;20057;-42
2023/12/25 11:16:35;;;;;;;20.17;15.90;;;;;;;23.75;33.13;99479.94;4978346;28;20494;-40
2023/12/25 11:19:01;;;;;;;17.98;14.23;;;;;;;23.68;32.98;99472.84;5007539;28;20390;-45
2023/12/25 11:21:30;;;;;;;17.95;13.18;;;;;;;23.55;33.19;99475.25;4976448;28;20019;-48
2023/12/25 11:23:55;;;;;;;15.82;13.60;;;;;;;23.45;33.63;99473.88;4978111;28;20026;-41